• Join FlightAware (Why Join?)
  • Login
  • US Flag 
05:21AM EDT


 

Airport Tracker/Info


-or-


 

Live Flight TrackerFlight Track Log ✈ UPS1337 ✈ 05-Jun-2014 ✈ KPIE - KSDF

Flight Track Log - Related Links

Times and Time Zones

All times are in EDT time to prevent confusion due to time zone crossing. See the UPS1337 flight status page for this flight to view local times or setup timezone preferences in your user account.

Time Position Orientation Groundspeed Altitude Reporting Facility
EDT Latitude Longitude Course Direction KTS MPH feet Rate Location/Type
09:45PM 27.9500 -82.6833 330° Northwest 178 205 2,300  Level Tampa TRACON
09:46PM 28.0167 -82.6833 360° North 251 289 5,100 2,820 Climbing Tampa TRACON
09:48PM 28.1603 -82.7250 346° North 255 293 11,200 2,340 Climbing Miami Center
09:49PM 28.2589 -82.7528 346° North 355 409 12,600 2,160 Climbing Miami Center
09:50PM 28.4867 -83.0404 330° Northwest  Level FlightAware Approximate
09:50PM 28.3669 -82.7911 343° North 362 417 15,800  Level Jacksonville Center
09:51PM 28.4631 -82.8667 325° Northwest 389 448 18,200 2,520 Climbing Jacksonville Center
09:52PM 28.5569 -82.9444 324° Northwest 406 467 20,900 2,520 Climbing Jacksonville Center
09:53PM 28.6599 -83.0248 326° Northwest 445 512 23,000 1,980 Climbing FlightAware ADS-B (KMCO)
09:53PM 28.6550 -83.0228 325° Northwest 425 489 22,900 1,800 Descending Jacksonville Center
09:54PM 28.7653 -83.0917 331° Northwest 441 507 25,100 1,980 Climbing Jacksonville Center
09:55PM 28.8886 -83.1250 347° North 441 507 26,900 1,500 Climbing Jacksonville Center
09:56PM 29.0158 -83.1608 346° North 451 519 28,200 1,560 Climbing Jacksonville Center
09:57PM 29.1450 -83.1944 347° North 464 534 30,100 1,800 Climbing Jacksonville Center
09:58PM 29.2744 -83.2283 347° North 472 543 31,800 1,740 Climbing Jacksonville Center
09:59PM 29.3994 -83.2644 346° North 466 536 33,600 1,080 Climbing Jacksonville Center
10:00PM 29.5289 -83.2983 347° North 466 536 34,000 60 Climbing Jacksonville Center
10:05PM 30.2380 -83.4849 347° North 455 524 34,000  Level FlightAware ADS-B (KTLH)
10:06PM 30.3378 -83.5115 347° North 453 521 34,000  Level FlightAware ADS-B (KTLH)
10:07PM 30.4400 -83.5393 347° North 454 522 34,000  Level FlightAware ADS-B (KTLH)
10:08PM 30.5071 -83.5576 347° North 456 525 34,000  Level FlightAware ADS-B (KTLH)
10:08PM 30.5809 -83.5778 347° North 457 526 34,000  Level FlightAware ADS-B (KTLH)
10:09PM 30.6429 -83.5947 347° North 456 525 34,000  Level FlightAware ADS-B (KTLH)
10:09PM 30.6997 -83.6097 347° North 455 524 34,000  Level FlightAware ADS-B (KTLH)
10:10PM 30.7670 -83.6281 347° North 454 522 34,000  Level FlightAware ADS-B (KTLH)
10:11PM 30.8611 -83.6540 347° North 460 529 34,000  Level FlightAware ADS-B (KTLH)
10:12PM 30.9901 -83.6896 347° North 462 532 34,000  Level FlightAware ADS-B (KTLH)
10:12PM 31.0837 -83.7153 347° North 462 532 34,000  Level FlightAware ADS-B (KTLH)
10:13PM 31.1516 -83.7336 347° North 462 532 34,000  Level FlightAware ADS-B (KTLH)
10:13PM 31.2326 -83.7558 347° North 459 528 34,000  Level FlightAware ADS-B (KTLH)
10:14PM 31.3161 -83.7786 347° North 460 529 34,000  Level FlightAware ADS-B (KTLH)
10:15PM 31.3728 -83.7981 347° North 466 536 34,000  Level Atlanta Center
10:16PM 31.5003 -83.8342 346° North 460 529 34,000  Level Atlanta Center
10:17PM 31.6003 -83.8658 345° North 460 529 34,000  Level Atlanta Center
10:18PM 31.7444 -83.9069 346° North 465 535 34,000  Level Atlanta Center
10:19PM 31.8675 -83.9361 349° North 465 535 34,000  Level Atlanta Center
10:20PM 31.9928 -83.9703 347° North 465 535 34,000  Level Atlanta Center
10:21PM 32.1181 -84.0044 347° North 465 535 34,000  Level Atlanta Center
10:22PM 32.2475 -84.0414 346° North 465 535 34,000  Level Atlanta Center
10:23PM 32.3728 -84.0758 347° North 465 535 34,000  Level Atlanta Center
10:24PM 32.4981 -84.1128 346° North 465 535 34,000  Level Atlanta Center
10:25PM 32.6233 -84.1597 342° North 465 535 34,000  Level Atlanta Center
10:26PM 32.7128 -84.2733 313° West 450 518 34,000  Level Atlanta Center
10:27PM 32.7981 -84.3897 311° West 455 524 34,000  Level Atlanta Center
10:28PM 32.8853 -84.5064 312° West 460 529 34,000  Level Atlanta Center
10:29PM 32.9725 -84.6158 314° West 465 535 34,000  Level Atlanta Center
10:30PM 33.0575 -84.7303 312° West 465 535 34,000  Level Atlanta Center
10:35PM 33.7880 -84.9773 312° West 467 537 34,000  Level FlightAware ADS-B (KDZJ)
10:36PM 33.8291 -84.9773 360° North 466 536 34,000  Level FlightAware ADS-B (KDZJ)
10:36PM 33.9186 -84.9772 North 466 536 34,000  Level FlightAware ADS-B (KDZJ)
10:37PM 33.9627 -84.9772 360° North 466 536 34,000  Level FlightAware ADS-B (KDZJ)
10:37PM 34.0471 -84.9774 360° North 467 537 34,000  Level FlightAware ADS-B (KDZJ)
10:39PM 34.3174 -84.9776 360° North 470 541 34,000  Level FlightAware ADS-B (KDZJ)
10:41PM 34.5657 -84.9776 360° North 463 533 34,000  Level FlightAware ADS-B (KDZJ)
10:42PM 34.6501 -84.9777 360° North 466 536 34,000  Level FlightAware ADS-B (KDZJ)
10:43PM 34.7813 -84.9778 360° North 466 536 34,000  Level FlightAware ADS-B (KDZJ)
10:44PM 34.8690 -84.9777 360° North 466 536 34,000  Level FlightAware ADS-B (KDZJ)
10:44PM 34.9552 -84.9777 360° North 466 536 34,000  Level FlightAware ADS-B (KDZJ)
10:45PM 35.0410 -84.9777 360° North 441 507 34,000  Level FlightAware ADS-B (KDZJ)
10:46PM 35.1250 -84.9778 360° North 470 541 34,000  Level FlightAware ADS-B (KDZJ)
10:49PM 35.4666 -84.9782 360° North 478 550 34,000  Level FlightAware ADS-B (KMDQ)
10:50PM 35.5828 -84.9792 360° North 475 547 34,000 -600 Level Indianapolis Center
10:56PM 36.3772 -85.1169 349° North 460 529 30,000 -720 Descending FlightAware ADS-B (KBRY)
10:57PM 36.4866 -85.1316 North 470 541 29,300 -1,020 Descending FlightAware ADS-B (KBRY)
10:58PM 36.6663 -85.1038 North 465 535 27,800 -1,260 Descending FlightAware ADS-B (KBRY)
10:59PM 36.7258 -85.0946 North 472 543 26,600 -1,860 Descending FlightAware ADS-B (KBRY)
11:00PM 36.9169 -85.0661 North 447 514 24,100 -2,220 Descending FlightAware ADS-B (KBRY)
11:01PM 37.0342 -85.0479 North 422 486 22,000 -2,280 Descending FlightAware ADS-B (KBRY)
11:02PM 37.1528 -85.0299 North 402 463 19,600 -2,280 Descending FlightAware ADS-B (KBRY)
11:03PM 37.2654 -85.0123 North 398 458 17,300 -2,280 Descending FlightAware ADS-B (KBRY)
11:04PM 37.3275 -85.0030 North 382 440 15,400 -2,340 Descending FlightAware ADS-B (KBRY)
11:05PM 37.4674 -84.9816 North 367 422 12,900 -2,280 Descending FlightAware ADS-B (KBRY)
11:05PM 37.5229 -84.9731 North 359 413 11,800 -960 Descending FlightAware ADS-B (KBRY)
11:08PM 37.7283 -85.0529 312° West 327 376 10,100 -540 Descending FlightAware ADS-B (KBRY)
11:09PM 37.7821 -85.1278 312° West 326 375 10,000 -360 Descending FlightAware ADS-B (KBRY)
11:10PM 37.8316 -85.2206 291° West 271 312 9,500 -1,020 Descending FlightAware ADS-B (KBRY)
11:11PM 37.8579 -85.3109 290° West 272 313 7,900 -1,620 Descending FlightAware ADS-B (KBRY)
11:12PM 37.8839 -85.4004 291° West 269 310 6,300 -1,680 Descending FlightAware ADS-B (KBRY)
11:13PM 37.9110 -85.4912 290° West 275 316 4,600 -1,200 Descending FlightAware ADS-B (KBRY)
11:14PM 37.9376 -85.5814 290° West 258 297 4,000 -360 Descending FlightAware ADS-B (KBRY)
11:15PM 37.9665 -85.6568 315° West 226 260 3,900 -420 Descending FlightAware ADS-B (KBRY)
11:16PM 38.0142 -85.6921 347° North 190 219 3,200 -780 Descending FlightAware ADS-B (KBRY)
11:17PM 38.0613 -85.7074 345° North 177 204 2,400 -840 Descending FlightAware ADS-B (KBRY)
11:18PM 38.0988 -85.7196 346° North 136 157 1,600 -780 Descending FlightAware ADS-B (KBRY)
11:19PM 38.1291 -85.7296 345° North 134 154 1,100 -720 Descending FlightAware ADS-B (KBRY)
11:26PM 38.1667 -85.7333 208° Southwest  Level FlightAware Approximate
11:27PM 38.1741 -85.7365 208° Southwest  Level Estimated
11:28PM 38.1741 -85.7365 208° Southwest  Level Estimated